Time;durP1;ratioP1;P1;durP2;ratioP2;P2;SDS_P1;SDS_P2;PMS_P1;PMS_P2;Temp;Humidity;BMP_temperature;BMP_pressure;BME280_temperature;BME280_humidity;BME280_pressure;Samples;Min_cycle;Max_cycle;Signal;HPM_P1;HPM_P2
2023/08/02 00:00:38;;;;;;;15.05;9.48;;;26.10;78.90;;;;;;4958472;28;20035;-77
2023/08/02 00:03:04;;;;;;;16.73;9.30;;;26.10;78.00;;;;;;4935796;29;20091;-78
2023/08/02 00:05:31;;;;;;;15.23;9.87;;;26.10;78.90;;;;;;4955664;28;20035;-78
2023/08/02 00:07:57;;;;;;;15.82;9.63;;;26.10;79.00;;;;;;4939558;29;20283;-77
2023/08/02 00:10:23;;;;;;;16.40;9.18;;;26.00;79.50;;;;;;4963674;28;20035;-78
2023/08/02 00:15:24;;;;;;;14.15;8.68;;;26.00;79.40;;;;;;4914636;29;20040;-81
2023/08/02 00:17:50;;;;;;;16.30;9.53;;;26.00;78.50;;;;;;4920388;29;20027;-81
2023/08/02 00:20:16;;;;;;;16.93;11.97;;;26.00;79.20;;;;;;4934907;29;20034;-81
2023/08/02 00:22:42;;;;;;;18.17;13.13;;;25.90;80.50;;;;;;4924744;29;20384;-81
2023/08/02 00:25:08;;;;;;;22.67;13.30;;;25.80;81.50;;;;;;4917360;29;20271;-80
2023/08/02 00:27:34;;;;;;;20.83;13.55;;;25.80;81.90;;;;;;4915884;29;20039;-81
2023/08/02 00:30:00;;;;;;;15.70;12.97;;;25.80;82.20;;;;;;4915732;29;20028;-81
2023/08/02 00:32:25;;;;;;;25.37;14.13;;;25.70;82.50;;;;;;4915239;29;20084;-81
2023/08/02 00:34:54;;;;;;;;;;;25.70;82.00;;;;;;4926733;29;20032;-80
2023/08/02 00:37:23;;;;;;;20.55;12.55;;;25.70;81.50;;;;;;4917845;29;20359;-80
2023/08/02 00:39:51;;;;;;;16.65;12.82;;;25.60;82.30;;;;;;4915606;29;20059;-81
2023/08/02 00:42:17;;;;;;;19.02;12.20;;;25.60;82.50;;;;;;4916746;29;20107;-80
2023/08/02 00:44:43;;;;;;;19.03;13.17;;;25.60;83.00;;;;;;4915196;29;20119;-81
2023/08/02 00:47:09;;;;;;;18.67;11.80;;;25.50;83.40;;;;;;4915606;29;20046;-81
2023/08/02 00:49:34;;;;;;;14.63;12.70;;;25.50;83.70;;;;;;4931324;29;20268;-80
2023/08/02 00:52:00;;;;;;;17.73;13.60;;;25.40;84.00;;;;;;4916569;29;20034;-81
2023/08/02 00:54:28;;;;;;;18.80;13.43;;;25.40;84.60;;;;;;4915472;29;20028;-81
2023/08/02 00:56:54;;;;;;;23.08;14.30;;;25.40;85.30;;;;;;4931202;29;20025;-81
2023/08/02 00:59:20;;;;;;;20.35;13.40;;;25.40;86.90;;;;;;4899205;29;20024;-80
2023/08/02 01:01:47;;;;;;;19.33;16.77;;;25.40;88.00;;;;;;4916340;29;20111;-81
2023/08/02 01:04:13;;;;;;;;;;;25.40;88.90;;;;;;4912238;29;20038;-81
2023/08/02 01:06:49;;;;;;;17.88;16.02;;;25.30;89.50;;;;;;4926271;29;20282;-80
2023/08/02 01:09:27;;;;;;;18.40;16.58;;;25.30;89.00;;;;;;4916124;29;20499;-81
2023/08/02 01:12:09;;;;;;;19.25;17.08;;;25.20;89.60;;;;;;4915985;29;20530;-81
2023/08/02 01:14:40;;;;;;;20.60;18.45;;;25.20;91.60;;;;;;4930399;29;20025;-81
2023/08/02 01:17:11;;;;;;;20.33;17.95;;;25.10;90.70;;;;;;4898939;29;20062;-81
2023/08/02 01:19:37;;;;;;;19.10;17.25;;;25.10;91.30;;;;;;4914352;29;20032;-81
2023/08/02 01:22:03;;;;;;;18.70;16.07;;;25.10;91.30;;;;;;4914526;29;20080;-80
2023/08/02 01:24:35;;;;;;;18.20;16.40;;;25.10;91.50;;;;;;4915584;29;20056;-81
2023/08/02 01:27:07;;;;;;;21.92;18.35;;;25.00;91.80;;;;;;4916885;29;20063;-80
2023/08/02 01:29:35;;;;;;;19.55;17.58;;;25.00;91.80;;;;;;4919311;29;20038;-81
2023/08/02 01:32:03;;;;;;;19.15;17.27;;;24.90;91.90;;;;;;4933341;29;20036;-80
2023/08/02 01:34:30;;;;;;;18.85;16.92;;;24.90;92.00;;;;;;4919740;29;20537;-81
2023/08/02 01:36:56;;;;;;;17.48;15.77;;;24.90;91.80;;;;;;4915331;29;20111;-81
2023/08/02 01:39:22;;;;;;;17.37;14.97;;;24.90;91.70;;;;;;4929095;29;20058;-81
2023/08/02 01:41:48;;;;;;;16.37;13.10;;;24.90;91.50;;;;;;4951318;29;20036;-81
2023/08/02 01:44:13;;;;;;;15.90;13.33;;;24.90;91.30;;;;;;4932339;29;20083;-81
2023/08/02 01:46:39;;;;;;;13.30;11.77;;;24.80;91.00;;;;;;4918204;29;20028;-81
2023/08/02 01:49:05;;;;;;;12.40;11.20;;;24.80;91.00;;;;;;4919528;29;20035;-81
2023/08/02 01:51:31;;;;;;;10.83;9.83;;;24.80;90.70;;;;;;4917942;29;20039;-80
2023/08/02 01:53:57;;;;;;;10.83;9.70;;;24.70;90.50;;;;;;4917847;29;20032;-81
2023/08/02 01:56:22;;;;;;;9.40;8.60;;;24.70;90.40;;;;;;4922156;29;20019;-81
2023/08/02 01:58:48;;;;;;;9.23;8.33;;;24.60;90.30;;;;;;4952956;29;20406;-81
2023/08/02 02:01:14;;;;;;;8.57;7.27;;;24.50;90.20;;;;;;4936609;29;20080;-81
2023/08/02 02:03:40;;;;;;;8.80;6.90;;;24.40;90.20;;;;;;4936993;29;20506;-81
2023/08/02 02:06:06;;;;;;;7.20;6.30;;;24.40;90.00;;;;;;4919480;29;20123;-81
2023/08/02 02:08:32;;;;;;;;;;;24.40;89.70;;;;;;4919614;29;20032;-81
2023/08/02 02:10:58;;;;;;;7.03;6.32;;;24.30;88.80;;;;;;4917625;29;19966;-81
2023/08/02 02:13:25;;;;;;;7.43;5.27;;;24.20;88.90;;;;;;4917667;29;20047;-81
2023/08/02 02:15:51;;;;;;;7.50;5.53;;;24.20;88.20;;;;;;4917609;29;20035;-80
2023/08/02 02:18:17;;;;;;;6.63;4.05;;;24.20;87.50;;;;;;4917751;29;20039;-81
2023/08/02 02:20:42;;;;;;;3.63;3.33;;;24.10;86.70;;;;;;4917396;29;20028;-80
2023/08/02 02:23:08;;;;;;;5.87;4.90;;;24.10;86.30;;;;;;4917640;29;20063;-80
2023/08/02 02:25:34;;;;;;;3.43;3.00;;;24.00;86.00;;;;;;4918238;29;20076;-80
2023/08/02 02:28:00;;;;;;;5.13;2.87;;;24.00;85.40;;;;;;4916933;29;20036;-81
2023/08/02 02:30:26;;;;;;;3.67;2.87;;;24.00;84.90;;;;;;4933425;29;20037;-81
2023/08/02 02:32:52;;;;;;;4.03;2.10;;;24.00;84.30;;;;;;4922428;29;20027;-81
2023/08/02 02:35:18;;;;;;;4.50;2.60;;;24.00;83.90;;;;;;4937884;29;20034;-81
2023/08/02 02:37:44;;;;;;;2.47;2.28;;;23.90;83.60;;;;;;4952022;28;20259;-81
2023/08/02 02:40:10;;;;;;;2.47;1.90;;;23.90;83.30;;;;;;4937524;29;20459;-81
2023/08/02 02:42:40;;;;;;;6.50;2.00;;;23.80;83.10;;;;;;4951854;29;20036;-80
2023/08/02 02:45:08;;;;;;;2.05;1.75;;;23.80;82.70;;;;;;4936099;29;20557;-81
2023/08/02 02:47:34;;;;;;;3.25;1.80;;;23.80;82.30;;;;;;4936098;29;20087;-80
2023/08/02 02:50:00;;;;;;;2.53;1.73;;;23.70;82.40;;;;;;4952167;29;20036;-80
2023/08/02 02:52:26;;;;;;;2.20;2.00;;;23.70;82.40;;;;;;4933660;29;20044;-80
2023/08/02 02:54:51;;;;;;;3.43;1.50;;;23.70;83.10;;;;;;4932026;29;20028;-80
2023/08/02 02:57:18;;;;;;;6.10;1.70;;;23.70;83.40;;;;;;4916801;29;20035;-80
2023/08/02 02:59:43;;;;;;;3.88;2.00;;;23.70;83.20;;;;;;4917235;29;20047;-81
2023/08/02 03:02:09;;;;;;;3.30;1.90;;;23.60;83.10;;;;;;4923296;29;20399;-81
2023/08/02 03:04:35;;;;;;;3.20;2.27;;;23.60;83.30;;;;;;4917592;29;20035;-81
2023/08/02 03:07:01;;;;;;;2.43;1.90;;;23.60;83.30;;;;;;4911060;29;20039;-81
2023/08/02 03:09:27;;;;;;;2.55;1.80;;;23.60;83.50;;;;;;4917437;29;20495;-81
2023/08/02 03:11:53;;;;;;;4.70;2.20;;;23.50;83.70;;;;;;4920282;29;20046;-81
2023/08/02 03:14:19;;;;;;;2.30;2.00;;;23.60;83.80;;;;;;4917848;29;20032;-81
2023/08/02 03:16:45;;;;;;;2.93;1.87;;;23.50;83.80;;;;;;4916221;29;20043;-81
2023/08/02 03:19:13;;;;;;;2.67;1.93;;;23.50;84.00;;;;;;4930884;29;20034;-81
2023/08/02 03:21:39;;;;;;;3.78;2.30;;;23.50;84.40;;;;;;4904787;29;20041;-81
2023/08/02 03:24:05;;;;;;;3.20;1.93;;;23.50;84.30;;;;;;4931974;29;20032;-81
2023/08/02 03:26:31;;;;;;;3.03;2.05;;;23.50;84.30;;;;;;4927330;29;20032;-81
2023/08/02 03:28:57;;;;;;;2.40;2.20;;;23.40;84.30;;;;;;4923106;29;20380;-81
2023/08/02 03:31:23;;;;;;;3.50;2.50;;;23.40;84.10;;;;;;4931568;29;20036;-81
2023/08/02 03:33:49;;;;;;;6.43;2.43;;;23.30;84.20;;;;;;4900305;29;20096;-81
2023/08/02 03:36:15;;;;;;;3.23;2.10;;;23.30;84.40;;;;;;4901785;29;20559;-81
2023/08/02 03:38:42;;;;;;;4.60;2.90;;;23.40;84.40;;;;;;4917642;29;20032;-81
2023/08/02 03:41:08;;;;;;;2.25;2.05;;;23.40;84.60;;;;;;4917559;29;20020;-81
2023/08/02 03:43:34;;;;;;;2.50;2.30;;;23.40;84.90;;;;;;4917634;29;20028;-80
2023/08/02 03:46:00;;;;;;;3.93;2.13;;;23.40;84.60;;;;;;4916249;29;20032;-81
2023/08/02 03:48:28;;;;;;;3.35;2.13;;;23.40;84.30;;;;;;4915337;29;20499;-79
2023/08/02 03:50:59;;;;;;;3.45;2.72;;;23.30;85.30;;;;;;4900204;29;20036;-79
2023/08/02 03:53:26;;;;;;;5.03;3.03;;;23.30;85.10;;;;;;4933954;29;20059;-79
2023/08/02 03:55:52;;;;;;;3.03;2.72;;;23.30;85.50;;;;;;4919220;29;20513;-82
2023/08/02 03:58:18;;;;;;;4.33;3.23;;;23.20;85.40;;;;;;4917682;29;20028;-82
2023/08/02 04:00:44;;;;;;;5.10;2.80;;;23.30;85.60;;;;;;4907605;29;20617;-81
2023/08/02 04:03:09;;;;;;;3.87;3.00;;;23.30;85.30;;;;;;4916544;29;20080;-81
2023/08/02 04:05:35;;;;;;;4.67;2.87;;;23.30;85.60;;;;;;4917128;29;20280;-81
2023/08/02 04:08:02;;;;;;;4.53;2.90;;;23.30;85.70;;;;;;4917324;29;20039;-81
2023/08/02 04:10:27;;;;;;;5.07;2.67;;;23.30;85.60;;;;;;4916235;29;20035;-81
2023/08/02 04:12:53;;;;;;;5.30;2.80;;;23.30;85.90;;;;;;4918856;29;20039;-82
2023/08/02 04:15:19;;;;;;;10.37;3.50;;;23.30;85.90;;;;;;4936605;29;20028;-81
2023/08/02 04:17:45;;;;;;;4.77;3.73;;;23.30;86.40;;;;;;4915926;29;20035;-81
2023/08/02 04:20:11;;;;;;;3.20;2.90;;;23.30;85.90;;;;;;4921047;29;20031;-82
2023/08/02 04:22:37;;;;;;;3.20;2.70;;;23.30;85.90;;;;;;4924031;29;20043;-82
2023/08/02 04:25:03;;;;;;;6.47;3.50;;;23.40;86.10;;;;;;4916698;29;20107;-82
2023/08/02 04:27:30;;;;;;;6.03;3.40;;;23.40;85.90;;;;;;4916750;29;20035;-82
2023/08/02 04:29:56;;;;;;;4.60;3.22;;;23.50;85.60;;;;;;4916789;29;20024;-82
2023/08/02 04:32:21;;;;;;;5.17;3.00;;;23.50;85.40;;;;;;4914999;29;20151;-82
2023/08/02 04:34:47;;;;;;;2.97;2.60;;;23.50;85.40;;;;;;4899823;29;20032;-82
2023/08/02 04:37:13;;;;;;;3.47;2.60;;;23.50;85.00;;;;;;4916043;29;20028;-81
2023/08/02 04:39:39;;;;;;;2.67;2.47;;;23.50;85.10;;;;;;4915446;29;20034;-81
2023/08/02 04:42:05;;;;;;;5.40;2.77;;;23.60;84.80;;;;;;4915148;29;20047;-81
2023/08/02 04:44:31;;;;;;;5.70;2.43;;;23.60;84.70;;;;;;4915756;29;20068;-81
2023/08/02 04:46:56;;;;;;;5.57;2.70;;;23.60;84.40;;;;;;4916809;29;20111;-81
2023/08/02 04:49:22;;;;;;;5.17;2.93;;;23.60;84.60;;;;;;4916844;29;20466;-81
2023/08/02 04:51:48;;;;;;;3.20;2.80;;;23.60;84.60;;;;;;4915227;29;20035;-81
2023/08/02 04:54:14;;;;;;;7.53;2.75;;;23.60;84.60;;;;;;4915837;29;20425;-81
2023/08/02 04:56:40;;;;;;;3.83;2.40;;;23.60;84.80;;;;;;4915772;29;20040;-81
2023/08/02 04:59:06;;;;;;;6.07;2.90;;;23.70;84.60;;;;;;4898707;29;20024;-81
2023/08/02 05:01:32;;;;;;;6.88;2.67;;;23.70;84.90;;;;;;4911853;29;20032;-81
2023/08/02 05:03:58;;;;;;;5.40;2.77;;;23.60;84.90;;;;;;4906776;29;20283;-81
2023/08/02 05:06:24;;;;;;;3.47;2.50;;;23.70;84.60;;;;;;4915036;29;20118;-81
2023/08/02 05:08:50;;;;;;;2.30;1.87;;;23.60;84.50;;;;;;4926340;29;20032;-81
2023/08/02 05:11:16;;;;;;;3.63;2.00;;;23.60;84.50;;;;;;4911661;29;20028;-81
2023/08/02 05:13:41;;;;;;;4.20;1.90;;;23.60;84.60;;;;;;4926203;29;20119;-81
2023/08/02 05:16:13;;;;;;;2.97;1.73;;;23.70;84.20;;;;;;4914505;29;20063;-81
2023/08/02 05:18:39;;;;;;;5.70;2.00;;;23.70;83.90;;;;;;4929165;29;20036;-81
2023/08/02 05:21:18;;;;;;;3.13;1.85;;;23.80;83.50;;;;;;4930760;29;20032;-82
2023/08/02 05:23:44;;;;;;;2.78;1.92;;;23.80;82.40;;;;;;4917221;29;20040;-82
2023/08/02 05:26:10;;;;;;;2.80;2.20;;;23.80;82.70;;;;;;4914523;29;20475;-82
2023/08/02 05:28:37;;;;;;;3.93;2.03;;;23.80;82.80;;;;;;4918123;29;20036;-81
2023/08/02 05:31:03;;;;;;;3.75;2.10;;;23.90;82.20;;;;;;4916176;29;20531;-81
2023/08/02 05:33:29;;;;;;;2.97;1.85;;;24.00;81.70;;;;;;4895506;29;20415;-82
2023/08/02 05:35:54;;;;;;;7.93;1.87;;;24.10;81.00;;;;;;4912411;29;20054;-82
2023/08/02 05:38:21;;;;;;;5.07;2.50;;;24.20;80.80;;;;;;4923844;29;20136;-81
2023/08/02 05:40:47;;;;;;;6.05;2.42;;;24.20;80.30;;;;;;4944904;29;20115;-81
2023/08/02 05:43:13;;;;;;;3.45;2.47;;;24.20;80.50;;;;;;4934309;29;20040;-82
2023/08/02 05:45:38;;;;;;;3.33;2.23;;;24.30;80.60;;;;;;4914601;29;20043;-81
2023/08/02 05:48:04;;;;;;;5.40;2.27;;;24.30;80.00;;;;;;4916197;29;20550;-82
2023/08/02 05:50:31;;;;;;;4.27;2.40;;;24.40;79.80;;;;;;4916531;29;20446;-81
2023/08/02 05:52:57;;;;;;;3.20;2.05;;;24.30;79.40;;;;;;4916427;29;20040;-82
2023/08/02 05:55:22;;;;;;;4.07;1.73;;;24.30;79.20;;;;;;4916930;29;20076;-81
2023/08/02 05:57:48;;;;;;;2.67;1.80;;;24.30;78.80;;;;;;4934634;29;20031;-81
2023/08/02 06:00:15;;;;;;;4.03;1.70;;;24.40;78.60;;;;;;4933871;29;20027;-81
2023/08/02 06:02:41;;;;;;;8.18;2.88;;;24.50;78.30;;;;;;4935587;29;20553;-82
2023/08/02 06:05:07;;;;;;;9.97;2.20;;;24.50;77.60;;;;;;4935158;29;20028;-81
2023/08/02 06:07:33;;;;;;;4.38;2.38;;;24.60;77.50;;;;;;4926226;29;20061;-82
2023/08/02 06:09:59;;;;;;;4.72;1.95;;;24.60;77.40;;;;;;4910790;29;20059;-82
2023/08/02 06:12:25;;;;;;;1.53;1.30;;;24.70;76.80;;;;;;4937536;29;20039;-81
2023/08/02 06:14:51;;;;;;;4.30;1.73;;;24.70;76.20;;;;;;4988887;23;20052;-77
2023/08/02 06:17:17;;;;;;;2.20;1.87;;;24.70;75.90;;;;;;4956399;29;20026;-78
2023/08/02 06:19:43;;;;;;;3.17;1.90;;;24.70;76.50;;;;;;4955278;29;20456;-79
2023/08/02 06:22:09;;;;;;;4.50;2.00;;;24.60;76.20;;;;;;4950372;29;20106;-80
2023/08/02 06:24:35;;;;;;;2.60;1.52;;;24.60;76.20;;;;;;4950676;29;20031;-80
2023/08/02 06:27:01;;;;;;;4.83;1.73;;;24.60;76.00;;;;;;4958604;29;20089;-80
2023/08/02 06:29:27;;;;;;;3.30;2.10;;;24.60;76.20;;;;;;4957957;29;20034;-80
2023/08/02 06:31:52;;;;;;;1.93;1.47;;;24.60;76.00;;;;;;4958720;29;20091;-79
2023/08/02 06:34:18;;;;;;;2.20;2.00;;;24.80;75.90;;;;;;4959678;29;20404;-79
2023/08/02 06:36:44;;;;;;;2.20;1.40;;;24.90;75.40;;;;;;4957899;29;20029;-79
2023/08/02 06:39:10;;;;;;;2.20;1.43;;;25.00;75.30;;;;;;4957495;29;20035;-79
2023/08/02 06:41:36;;;;;;;4.20;1.70;;;25.10;75.00;;;;;;4959629;28;20106;-79
2023/08/02 06:44:05;;;;;;;4.00;1.40;;;25.20;73.70;;;;;;4957917;29;20122;-79
2023/08/02 06:46:33;;;;;;;1.87;1.57;;;25.30;73.70;;;;;;4960042;28;20054;-79
2023/08/02 06:48:59;;;;;;;2.42;1.63;;;25.40;73.90;;;;;;4958266;29;20490;-79
2023/08/02 06:51:24;;;;;;;2.07;1.40;;;25.50;74.40;;;;;;4960221;28;20038;-79
2023/08/02 06:53:51;;;;;;;2.07;1.10;;;25.50;73.10;;;;;;4960063;28;20118;-79
2023/08/02 06:56:17;;;;;;;;;;;25.50;72.50;;;;;;4960351;28;20034;-79
2023/08/02 06:58:43;;;;;;;1.40;1.27;;;25.40;72.00;;;;;;4960756;28;19907;-79
2023/08/02 07:01:18;;;;;;;8.55;1.60;;;25.40;73.00;;;;;;4958749;28;20508;-79
2023/08/02 07:03:45;;;;;;;3.35;1.92;;;25.40;72.30;;;;;;4950457;29;20454;-79
2023/08/02 07:06:12;;;;;;;1.98;1.35;;;25.40;72.10;;;;;;4939230;29;20023;-80
2023/08/02 07:08:39;;;;;;;4.20;1.50;;;25.40;72.60;;;;;;4939630;29;20152;-80
2023/08/02 07:11:05;;;;;;;4.28;1.45;;;25.50;73.00;;;;;;4939565;29;20055;-79
2023/08/02 07:13:32;;;;;;;6.93;1.83;;;25.40;72.50;;;;;;4941823;29;20087;-79
2023/08/02 07:15:59;;;;;;;2.67;1.40;;;25.40;72.60;;;;;;4946255;29;20035;-79
2023/08/02 07:18:25;;;;;;;5.00;1.38;;;25.50;72.70;;;;;;4958215;29;20520;-79
2023/08/02 07:20:50;;;;;;;2.27;1.17;;;25.40;72.60;;;;;;4960142;28;20676;-79
2023/08/02 07:23:16;;;;;;;2.33;1.20;;;25.50;72.60;;;;;;4960692;28;20031;-79
2023/08/02 07:25:42;;;;;;;1.40;1.27;;;25.50;72.90;;;;;;4960904;28;20023;-80
2023/08/02 07:28:08;;;;;;;3.43;1.40;;;25.50;72.20;;;;;;4961742;28;20085;-80
2023/08/02 07:30:34;;;;;;;2.90;1.77;;;25.50;72.10;;;;;;4961598;28;20027;-80
2023/08/02 07:33:00;;;;;;;4.10;1.63;;;25.50;72.50;;;;;;4941524;29;20038;-79
2023/08/02 07:35:25;;;;;;;2.70;1.70;;;25.60;73.00;;;;;;4955659;29;20050;-79
2023/08/02 07:37:51;;;;;;;4.20;1.83;;;25.60;73.00;;;;;;4939378;29;20508;-79
2023/08/02 07:40:17;;;;;;;3.67;1.30;;;25.70;71.80;;;;;;4956837;29;20023;-79
2023/08/02 07:42:43;;;;;;;4.97;1.90;;;25.60;72.50;;;;;;4957303;29;20297;-79
2023/08/02 07:45:11;;;;;;;3.97;1.63;;;25.70;73.10;;;;;;4955210;29;20118;-80
2023/08/02 07:47:38;;;;;;;3.33;2.20;;;25.70;72.20;;;;;;4955486;29;20067;-79
2023/08/02 07:50:05;;;;;;;3.85;1.30;;;25.80;72.60;;;;;;4957389;28;20035;-79
2023/08/02 07:52:31;;;;;;;3.78;3.22;;;25.80;73.00;;;;;;4955867;29;20046;-79
2023/08/02 07:54:57;;;;;;;3.25;1.77;;;25.90;73.10;;;;;;4958799;28;20501;-79
2023/08/02 07:57:29;;;;;;;3.97;1.63;;;26.10;72.80;;;;;;4954949;29;20031;-79
2023/08/02 07:59:57;;;;;;;5.72;1.70;;;26.20;73.30;;;;;;4956996;28;20035;-80
2023/08/02 08:02:25;;;;;;;6.30;1.63;;;26.30;72.50;;;;;;4955761;29;20083;-80
2023/08/02 08:04:52;;;;;;;2.50;1.50;;;26.30;72.30;;;;;;4956512;28;20023;-79
2023/08/02 08:07:18;;;;;;;4.30;1.80;;;26.40;72.60;;;;;;4955866;29;20086;-79
2023/08/02 08:09:44;;;;;;;7.47;2.20;;;26.40;71.80;;;;;;4957180;28;20027;-79
2023/08/02 08:12:10;;;;;;;6.73;2.10;;;26.60;71.20;;;;;;4956831;28;20078;-79
2023/08/02 08:14:36;;;;;;;5.18;2.38;;;26.70;71.30;;;;;;4956225;29;20027;-79
2023/08/02 08:17:03;;;;;;;4.05;1.80;;;26.80;71.20;;;;;;4955758;29;20027;-79
2023/08/02 08:19:31;;;;;;;4.50;2.22;;;26.90;70.50;;;;;;4956813;28;20059;-79
2023/08/02 08:21:57;;;;;;;4.82;2.10;;;27.00;70.60;;;;;;4956781;29;20027;-80
2023/08/02 08:24:23;;;;;;;6.47;2.00;;;27.10;70.10;;;;;;4955097;29;20035;-79
2023/08/02 08:26:50;;;;;;;4.17;2.10;;;27.10;69.80;;;;;;4955161;29;20031;-80
2023/08/02 08:29:17;;;;;;;10.15;1.80;;;27.20;70.40;;;;;;4956768;28;20039;-80
2023/08/02 08:31:42;;;;;;;;;;;27.20;70.20;;;;;;4954826;29;20066;-79
2023/08/02 08:34:08;;;;;;;6.97;2.38;;;27.30;69.10;;;;;;4956783;28;19992;-79
2023/08/02 08:36:34;;;;;;;9.53;2.77;;;27.40;70.20;;;;;;4956231;28;20468;-80
2023/08/02 08:39:00;;;;;;;7.53;2.37;;;27.40;69.40;;;;;;4956456;28;20037;-79
2023/08/02 08:41:26;;;;;;;5.15;1.75;;;27.60;69.80;;;;;;4956300;28;20063;-79
2023/08/02 08:43:52;;;;;;;5.97;1.80;;;27.70;69.40;;;;;;4956692;28;20063;-79
2023/08/02 08:46:18;;;;;;;7.63;2.13;;;27.70;69.10;;;;;;4956767;28;20106;-80
2023/08/02 08:48:44;;;;;;;4.57;1.83;;;27.80;69.40;;;;;;4956315;28;20031;-79
2023/08/02 08:51:12;;;;;;;4.20;1.80;;;27.90;69.00;;;;;;4955269;29;20090;-80
2023/08/02 08:53:44;;;;;;;3.97;2.05;;;28.00;68.10;;;;;;4957142;29;20485;-79
2023/08/02 08:56:11;;;;;;;8.60;2.55;;;28.10;68.50;;;;;;4956765;29;20030;-79
2023/08/02 08:58:37;;;;;;;4.10;1.70;;;28.20;68.20;;;;;;4956877;28;20031;-79
2023/08/02 09:01:07;;;;;;;8.65;2.22;;;28.20;68.40;;;;;;4954855;29;20031;-79
2023/08/02 09:03:34;;;;;;;5.47;2.03;;;28.20;67.90;;;;;;4955229;29;20023;-79
2023/08/02 09:06:01;;;;;;;7.00;2.10;;;28.20;68.00;;;;;;4971410;28;20027;-79
2023/08/02 09:08:27;;;;;;;4.63;2.65;;;28.30;67.90;;;;;;4954866;29;20336;-79
2023/08/02 09:10:54;;;;;;;7.93;2.28;;;28.30;66.70;;;;;;4955139;29;20039;-79
2023/08/02 09:13:24;;;;;;;4.93;2.75;;;28.30;67.70;;;;;;4956609;28;20114;-79
2023/08/02 09:16:14;;;;;;;8.00;2.08;;;28.30;67.80;;;;;;4956700;28;20031;-79
2023/08/02 09:18:47;;;;;;;11.65;2.90;;;28.40;67.10;;;;;;4956285;28;20589;-79
2023/08/02 09:21:20;;;;;;;6.03;2.70;;;28.20;67.90;;;;;;4956769;28;20057;-79
2023/08/02 09:24:02;;;;;;;5.40;2.38;;;28.10;68.90;;;;;;4956715;28;20062;-79
2023/08/02 09:26:28;;;;;;;6.40;2.92;;;28.00;69.30;;;;;;4956345;28;20031;-79
2023/08/02 09:29:20;;;;;;;9.20;2.67;;;27.90;70.30;;;;;;4954608;29;20078;-79
2023/08/02 09:31:52;;;;;;;11.15;7.70;;;27.90;70.90;;;;;;4954345;29;20043;-79
2023/08/02 09:34:18;;;;;;;7.57;2.70;;;28.00;71.10;;;;;;4956487;28;20039;-79
2023/08/02 09:36:44;;;;;;;3.37;2.17;;;28.00;70.30;;;;;;4954990;29;20509;-79
2023/08/02 09:39:14;;;;;;;14.93;3.15;;;28.10;70.40;;;;;;4955625;29;20065;-79
2023/08/02 09:41:40;;;;;;;6.88;3.45;;;28.20;70.80;;;;;;4956413;28;20087;-79
2023/08/02 09:44:07;;;;;;;9.18;3.05;;;28.20;70.50;;;;;;4956245;28;20035;-79
2023/08/02 09:46:35;;;;;;;9.82;2.28;;;28.30;70.30;;;;;;4954993;28;20379;-79
2023/08/02 09:49:15;;;;;;;5.10;2.40;;;28.40;70.70;;;;;;4959065;28;20059;-79
2023/08/02 09:51:43;;;;;;;5.35;2.20;;;28.50;70.60;;;;;;4960369;29;20627;-79
2023/08/02 09:54:10;;;;;;;5.85;2.40;;;28.50;70.40;;;;;;4959950;28;20082;-79
2023/08/02 09:56:37;;;;;;;10.77;3.22;;;28.50;70.30;;;;;;4961110;28;20035;-79
2023/08/02 09:59:04;;;;;;;3.72;2.63;;;28.60;69.90;;;;;;4960162;28;20031;-79
2023/08/02 10:01:32;;;;;;;11.65;3.97;;;28.50;69.40;;;;;;4958836;29;20031;-79
2023/08/02 10:04:01;;;;;;;7.60;2.80;;;28.50;70.30;;;;;;4960404;28;20445;-79
2023/08/02 10:06:51;;;;;;;10.95;3.10;;;28.60;70.10;;;;;;4960056;28;20501;-80
2023/08/02 10:09:28;;;;;;;4.97;3.10;;;28.70;70.60;;;;;;4958886;29;20118;-80
2023/08/02 10:12:13;;;;;;;6.90;2.88;;;28.60;69.90;;;;;;4958407;29;20050;-79
2023/08/02 10:14:40;;;;;;;6.53;2.95;;;28.70;70.00;;;;;;4960142;28;20524;-79
2023/08/02 10:17:07;;;;;;;8.23;3.55;;;28.70;69.50;;;;;;4957898;29;20486;-79
2023/08/02 10:19:34;;;;;;;4.75;2.55;;;28.70;71.50;;;;;;4960508;29;20030;-81
2023/08/02 10:22:03;;;;;;;5.72;2.78;;;28.80;70.60;;;;;;4960323;28;20363;-83
2023/08/02 10:24:29;;;;;;;10.07;3.88;;;28.90;70.10;;;;;;4956636;29;20035;-81
2023/08/02 10:27:03;;;;;;;7.97;2.33;;;28.90;69.30;;;;;;4962091;29;20031;-81
2023/08/02 10:29:31;;;;;;;8.73;3.53;;;28.90;70.40;;;;;;4959017;29;20460;-80
2023/08/02 10:31:57;;;;;;;4.63;2.80;;;29.00;70.50;;;;;;4960592;28;20024;-81
2023/08/02 10:34:35;;;;;;;6.03;3.37;;;29.10;70.50;;;;;;4958172;28;20505;-81
2023/08/02 10:37:02;;;;;;;52.33;6.95;;;29.20;70.40;;;;;;4959817;29;20027;-81
2023/08/02 10:39:46;;;;;;;7.03;3.42;;;29.20;70.30;;;;;;4948617;29;20038;-81
2023/08/02 10:42:12;;;;;;;5.75;3.30;;;29.40;69.50;;;;;;4954692;29;20489;-79
2023/08/02 10:44:58;;;;;;;5.97;3.28;;;29.40;69.20;;;;;;4960670;28;20458;-79
2023/08/02 10:47:28;;;;;;;10.65;4.32;;;29.50;68.90;;;;;;4963569;29;20405;-78
2023/08/02 10:49:55;;;;;;;8.20;3.30;;;29.60;69.30;;;;;;4958619;29;20031;-78
2023/08/02 10:52:24;;;;;;;7.25;3.35;;;29.70;68.70;;;;;;4958049;28;20383;-78
2023/08/02 10:55:14;;;;;;;5.63;3.33;;;29.80;68.00;;;;;;4956389;29;20031;-78
2023/08/02 10:58:07;;;;;;;8.25;3.80;;;29.90;68.40;;;;;;4956418;29;20024;-78
2023/08/02 11:00:37;;;;;;;5.38;3.47;;;30.00;66.90;;;;;;4956094;29;20171;-78
2023/08/02 11:03:03;;;;;;;7.35;3.72;;;29.90;68.40;;;;;;4958492;28;20051;-78
2023/08/02 11:05:41;;;;;;;5.45;3.50;;;30.00;67.40;;;;;;4958415;28;20110;-78
2023/08/02 11:08:08;;;;;;;5.88;3.22;;;30.20;65.70;;;;;;4959010;29;20035;-79
2023/08/02 11:10:45;;;;;;;;;;;30.20;65.70;;;;;;4960777;28;20019;-79
2023/08/02 11:13:10;;;;;;;6.20;3.10;;;30.30;67.50;;;;;;4959918;28;19929;-81
2023/08/02 11:15:36;;;;;;;8.90;2.93;;;30.40;66.50;;;;;;4973685;28;20039;-81
2023/08/02 11:18:03;;;;;;;7.73;3.63;;;30.50;67.30;;;;;;4957388;29;20239;-81
2023/08/02 11:20:32;;;;;;;5.22;3.47;;;30.60;67.70;;;;;;4957217;29;20267;-81
2023/08/02 11:22:58;;;;;;;7.68;3.88;;;30.60;65.40;;;;;;4959002;29;20505;-81
2023/08/02 11:25:24;;;;;;;11.40;4.35;;;30.60;65.80;;;;;;4973244;28;20035;-81
2023/08/02 11:28:02;;;;;;;8.25;3.45;;;30.80;64.10;;;;;;4959074;28;20035;-81
2023/08/02 11:30:28;;;;;;;6.10;3.88;;;30.80;63.70;;;;;;4957866;29;20405;-81
2023/08/02 11:32:54;;;;;;;8.55;4.18;;;30.90;64.70;;;;;;4957617;29;20054;-81
2023/08/02 11:35:20;;;;;;;7.38;3.45;;;30.90;64.70;;;;;;4961224;28;20170;-81
2023/08/02 11:37:46;;;;;;;9.20;3.38;;;31.10;64.70;;;;;;4958636;29;20166;-81
2023/08/02 11:40:12;;;;;;;10.95;3.67;;;31.10;63.90;;;;;;4960453;29;20071;-81
2023/08/02 11:42:50;;;;;;;4.63;3.33;;;31.20;63.20;;;;;;4959728;28;20035;-79
2023/08/02 11:45:35;;;;;;;6.55;3.40;;;31.30;64.40;;;;;;4960796;28;20027;-79
2023/08/02 11:48:01;;;;;;;5.90;3.40;;;31.40;62.40;;;;;;4960600;28;20035;-79
2023/08/02 11:50:28;;;;;;;7.28;4.03;;;31.50;62.90;;;;;;4960383;29;20086;-79
2023/08/02 11:53:07;;;;;;;;;;;31.60;63.20;;;;;;4960771;29;20059;-79
2023/08/02 11:55:38;;;;;;;5.65;3.13;;;31.50;62.10;;;;;;4961058;28;19914;-79
2023/08/02 11:58:08;;;;;;;6.90;3.90;;;31.60;63.80;;;;;;4959944;29;20031;-81
2023/08/02 12:00:37;;;;;;;6.88;3.30;;;31.70;62.20;;;;;;4959327;28;20042;-81
2023/08/02 12:03:13;;;;;;;11.38;3.72;;;31.70;62.60;;;;;;4960621;29;20493;-81
2023/08/02 12:05:40;;;;;;;11.93;3.95;;;31.90;62.30;;;;;;4962401;28;20058;-81
2023/08/02 12:08:14;;;;;;;7.40;3.78;;;32.00;61.50;;;;;;4961443;28;20023;-81
2023/08/02 12:10:41;;;;;;;8.02;3.97;;;32.10;61.80;;;;;;4959008;28;20027;-81
2023/08/02 12:13:14;;;;;;;7.20;3.63;;;32.20;61.10;;;;;;4960095;29;20041;-81
2023/08/02 15:25:10;;;;;;;8.13;3.95;;;43.20;41.90;;;;;;5156538;23;20310;-79
2023/08/02 15:27:36;;;;;;;5.65;3.17;;;42.30;39.70;;;;;;4939480;29;20474;-80
2023/08/02 15:30:03;;;;;;;9.70;3.58;;;41.80;41.00;;;;;;4934535;29;20032;-79
2023/08/02 15:32:28;;;;;;;6.93;3.25;;;41.50;40.60;;;;;;4933336;29;20107;-80
2023/08/02 15:34:55;;;;;;;6.43;3.13;;;41.30;41.00;;;;;;4925576;29;20060;-80
2023/08/02 15:37:21;;;;;;;7.72;2.80;;;41.00;42.00;;;;;;4976212;23;20087;-78
2023/08/02 15:39:47;;;;;;;6.45;3.20;;;40.90;42.80;;;;;;4950060;29;20493;-80
2023/08/02 15:42:13;;;;;;;6.10;3.05;;;40.50;43.20;;;;;;4957544;29;20541;-80
2023/08/02 15:44:39;;;;;;;5.18;3.42;;;40.20;43.30;;;;;;4958410;28;20058;-80
2023/08/02 15:47:05;;;;;;;9.25;3.75;;;40.00;43.70;;;;;;4958958;28;20063;-81
2023/08/02 15:49:31;;;;;;;8.85;3.42;;;39.80;43.90;;;;;;4958855;28;20020;-80
2023/08/02 15:51:56;;;;;;;8.63;3.45;;;39.50;43.70;;;;;;4947098;29;20038;-80
2023/08/02 15:54:22;;;;;;;;;;;39.30;44.50;;;;;;4936382;29;20514;-80
2023/08/02 15:56:48;;;;;;;6.40;3.25;;;39.20;50.00;;;;;;4921757;29;19907;-81
2023/08/02 15:59:15;;;;;;;;;;;39.00;45.00;;;;;;4923508;29;20108;-80